sensor_id;sensor_type;location;lat;lon;timestamp;P1;durP1;ratioP1;P2;durP2;ratioP2
2630;SDS011;1325;48.414;9.952;2022-08-03T00:01:02;30.13;;;3.07;;
2630;SDS011;1325;48.414;9.952;2022-08-03T00:03:30;29.80;;;3.20;;
2630;SDS011;1325;48.414;9.952;2022-08-03T00:05:57;29.57;;;3.50;;
2630;SDS011;1325;48.414;9.952;2022-08-03T00:08:25;29.43;;;2.83;;
2630;SDS011;1325;48.414;9.952;2022-08-03T00:10:52;30.20;;;3.10;;
2630;SDS011;1325;48.414;9.952;2022-08-03T00:13:19;30.43;;;3.20;;
2630;SDS011;1325;48.414;9.952;2022-08-03T00:15:46;29.37;;;3.27;;
2630;SDS011;1325;48.414;9.952;2022-08-03T00:18:15;30.67;;;3.50;;
2630;SDS011;1325;48.414;9.952;2022-08-03T00:20:42;30.27;;;3.57;;
2630;SDS011;1325;48.414;9.952;2022-08-03T00:23:09;29.90;;;3.40;;
2630;SDS011;1325;48.414;9.952;2022-08-03T00:25:37;29.40;;;2.70;;
2630;SDS011;1325;48.414;9.952;2022-08-03T00:28:04;30.07;;;3.20;;
2630;SDS011;1325;48.414;9.952;2022-08-03T00:30:32;30.70;;;3.00;;
2630;SDS011;1325;48.414;9.952;2022-08-03T00:33:00;30.33;;;3.07;;
2630;SDS011;1325;48.414;9.952;2022-08-03T00:35:29;29.27;;;3.07;;
2630;SDS011;1325;48.414;9.952;2022-08-03T00:37:57;29.50;;;3.00;;
2630;SDS011;1325;48.414;9.952;2022-08-03T00:40:24;29.27;;;2.77;;
2630;SDS011;1325;48.414;9.952;2022-08-03T00:42:52;30.73;;;2.80;;
2630;SDS011;1325;48.414;9.952;2022-08-03T00:45:21;29.23;;;2.80;;
2630;SDS011;1325;48.414;9.952;2022-08-03T00:47:52;29.43;;;3.20;;
2630;SDS011;1325;48.414;9.952;2022-08-03T00:50:20;29.50;;;2.90;;
2630;SDS011;1325;48.414;9.952;2022-08-03T00:52:51;30.13;;;3.10;;
2630;SDS011;1325;48.414;9.952;2022-08-03T00:55:20;31.20;;;3.17;;
2630;SDS011;1325;48.414;9.952;2022-08-03T00:57:47;32.30;;;3.57;;
2630;SDS011;1325;48.414;9.952;2022-08-03T01:00:15;29.37;;;2.87;;
2630;SDS011;1325;48.414;9.952;2022-08-03T01:02:44;30.10;;;3.20;;
2630;SDS011;1325;48.414;9.952;2022-08-03T01:05:12;30.33;;;3.10;;
2630;SDS011;1325;48.414;9.952;2022-08-03T01:08:02;29.90;;;3.10;;
2630;SDS011;1325;48.414;9.952;2022-08-03T01:10:36;31.60;;;3.90;;
2630;SDS011;1325;48.414;9.952;2022-08-03T01:13:15;29.80;;;3.00;;
2630;SDS011;1325;48.414;9.952;2022-08-03T01:15:53;29.80;;;3.50;;
2630;SDS011;1325;48.414;9.952;2022-08-03T01:18:30;30.00;;;3.73;;
2630;SDS011;1325;48.414;9.952;2022-08-03T01:21:03;30.50;;;3.30;;
2630;SDS011;1325;48.414;9.952;2022-08-03T01:23:55;29.13;;;2.90;;
2630;SDS011;1325;48.414;9.952;2022-08-03T01:29:39;30.30;;;3.30;;
2630;SDS011;1325;48.414;9.952;2022-08-03T01:32:29;29.60;;;3.13;;
2630;SDS011;1325;48.414;9.952;2022-08-03T01:35:04;30.57;;;3.07;;
2630;SDS011;1325;48.414;9.952;2022-08-03T01:37:37;30.07;;;3.87;;
2630;SDS011;1325;48.414;9.952;2022-08-03T01:40:09;29.80;;;3.80;;
2630;SDS011;1325;48.414;9.952;2022-08-03T01:42:40;30.40;;;3.53;;
2630;SDS011;1325;48.414;9.952;2022-08-03T01:45:11;29.43;;;3.20;;
2630;SDS011;1325;48.414;9.952;2022-08-03T01:47:42;29.43;;;3.07;;
2630;SDS011;1325;48.414;9.952;2022-08-03T01:50:11;29.43;;;3.30;;
2630;SDS011;1325;48.414;9.952;2022-08-03T01:52:39;29.47;;;3.40;;
2630;SDS011;1325;48.414;9.952;2022-08-03T01:55:10;30.07;;;2.90;;
2630;SDS011;1325;48.414;9.952;2022-08-03T01:57:39;31.17;;;3.40;;
2630;SDS011;1325;48.414;9.952;2022-08-03T02:00:08;29.60;;;3.03;;
2630;SDS011;1325;48.414;9.952;2022-08-03T02:02:39;30.53;;;3.67;;
2630;SDS011;1325;48.414;9.952;2022-08-03T02:05:09;29.80;;;3.60;;
2630;SDS011;1325;48.414;9.952;2022-08-03T02:07:38;31.30;;;3.30;;
2630;SDS011;1325;48.414;9.952;2022-08-03T02:10:27;29.67;;;3.40;;
2630;SDS011;1325;48.414;9.952;2022-08-03T02:12:56;30.10;;;3.80;;
2630;SDS011;1325;48.414;9.952;2022-08-03T02:15:28;29.43;;;3.30;;
2630;SDS011;1325;48.414;9.952;2022-08-03T02:17:58;29.50;;;3.50;;
2630;SDS011;1325;48.414;9.952;2022-08-03T02:20:27;31.20;;;3.47;;
2630;SDS011;1325;48.414;9.952;2022-08-03T02:22:57;29.70;;;3.60;;
2630;SDS011;1325;48.414;9.952;2022-08-03T02:25:24;29.70;;;3.60;;
2630;SDS011;1325;48.414;9.952;2022-08-03T02:27:54;29.70;;;3.73;;
2630;SDS011;1325;48.414;9.952;2022-08-03T02:30:30;30.20;;;4.00;;
2630;SDS011;1325;48.414;9.952;2022-08-03T02:33:02;34.43;;;4.27;;
2630;SDS011;1325;48.414;9.952;2022-08-03T02:35:31;29.73;;;3.07;;
2630;SDS011;1325;48.414;9.952;2022-08-03T02:38:01;30.00;;;3.90;;
2630;SDS011;1325;48.414;9.952;2022-08-03T02:40:31;30.20;;;3.43;;
2630;SDS011;1325;48.414;9.952;2022-08-03T02:43:00;29.47;;;3.03;;
2630;SDS011;1325;48.414;9.952;2022-08-03T02:45:34;31.20;;;3.27;;
2630;SDS011;1325;48.414;9.952;2022-08-03T02:48:05;30.20;;;3.77;;
2630;SDS011;1325;48.414;9.952;2022-08-03T02:50:33;28.90;;;3.00;;
2630;SDS011;1325;48.414;9.952;2022-08-03T02:53:02;30.30;;;3.50;;
2630;SDS011;1325;48.414;9.952;2022-08-03T02:55:30;29.20;;;3.23;;
2630;SDS011;1325;48.414;9.952;2022-08-03T02:58:00;29.53;;;3.80;;
2630;SDS011;1325;48.414;9.952;2022-08-03T03:00:29;30.43;;;3.90;;
2630;SDS011;1325;48.414;9.952;2022-08-03T03:03:00;29.47;;;3.30;;
2630;SDS011;1325;48.414;9.952;2022-08-03T03:05:28;31.37;;;3.80;;
2630;SDS011;1325;48.414;9.952;2022-08-03T03:07:56;29.80;;;3.40;;
2630;SDS011;1325;48.414;9.952;2022-08-03T03:10:24;30.90;;;4.07;;
2630;SDS011;1325;48.414;9.952;2022-08-03T03:12:52;30.53;;;3.67;;
2630;SDS011;1325;48.414;9.952;2022-08-03T03:15:22;29.87;;;3.30;;
2630;SDS011;1325;48.414;9.952;2022-08-03T03:17:53;29.80;;;3.50;;
2630;SDS011;1325;48.414;9.952;2022-08-03T03:20:22;30.90;;;3.77;;
2630;SDS011;1325;48.414;9.952;2022-08-03T03:22:50;29.47;;;3.20;;
2630;SDS011;1325;48.414;9.952;2022-08-03T03:25:18;31.27;;;3.70;;
2630;SDS011;1325;48.414;9.952;2022-08-03T03:27:47;29.10;;;3.10;;
2630;SDS011;1325;48.414;9.952;2022-08-03T03:30:15;31.90;;;3.33;;
2630;SDS011;1325;48.414;9.952;2022-08-03T03:32:42;29.97;;;3.63;;
2630;SDS011;1325;48.414;9.952;2022-08-03T03:35:11;30.90;;;3.67;;
2630;SDS011;1325;48.414;9.952;2022-08-03T03:37:40;29.07;;;3.53;;
2630;SDS011;1325;48.414;9.952;2022-08-03T03:40:08;29.03;;;3.07;;
2630;SDS011;1325;48.414;9.952;2022-08-03T03:42:37;30.90;;;3.83;;
2630;SDS011;1325;48.414;9.952;2022-08-03T03:45:05;29.30;;;3.37;;
2630;SDS011;1325;48.414;9.952;2022-08-03T03:47:34;29.80;;;3.57;;
2630;SDS011;1325;48.414;9.952;2022-08-03T03:50:01;31.83;;;3.97;;
2630;SDS011;1325;48.414;9.952;2022-08-03T03:52:31;30.47;;;4.17;;
2630;SDS011;1325;48.414;9.952;2022-08-03T03:54:59;29.53;;;3.60;;
2630;SDS011;1325;48.414;9.952;2022-08-03T03:57:26;29.90;;;3.73;;
2630;SDS011;1325;48.414;9.952;2022-08-03T03:59:54;30.20;;;3.63;;
2630;SDS011;1325;48.414;9.952;2022-08-03T04:02:21;30.80;;;3.97;;
2630;SDS011;1325;48.414;9.952;2022-08-03T04:04:49;30.77;;;3.80;;
2630;SDS011;1325;48.414;9.952;2022-08-03T04:07:38;31.40;;;3.73;;
2630;SDS011;1325;48.414;9.952;2022-08-03T04:10:30;30.40;;;4.03;;
2630;SDS011;1325;48.414;9.952;2022-08-03T04:13:22;30.70;;;3.50;;
2630;SDS011;1325;48.414;9.952;2022-08-03T04:15:54;29.87;;;3.80;;
2630;SDS011;1325;48.414;9.952;2022-08-03T04:18:23;30.80;;;4.03;;
2630;SDS011;1325;48.414;9.952;2022-08-03T04:20:53;31.60;;;4.30;;
2630;SDS011;1325;48.414;9.952;2022-08-03T04:23:25;29.90;;;3.33;;
2630;SDS011;1325;48.414;9.952;2022-08-03T04:25:56;30.27;;;3.97;;
2630;SDS011;1325;48.414;9.952;2022-08-03T04:28:26;30.37;;;3.70;;
2630;SDS011;1325;48.414;9.952;2022-08-03T04:30:55;31.90;;;4.93;;
2630;SDS011;1325;48.414;9.952;2022-08-03T04:33:23;30.13;;;3.60;;
2630;SDS011;1325;48.414;9.952;2022-08-03T04:35:52;29.97;;;4.00;;
2630;SDS011;1325;48.414;9.952;2022-08-03T04:38:23;29.67;;;4.10;;
2630;SDS011;1325;48.414;9.952;2022-08-03T04:40:54;30.87;;;4.23;;
2630;SDS011;1325;48.414;9.952;2022-08-03T04:43:22;31.67;;;4.00;;
2630;SDS011;1325;48.414;9.952;2022-08-03T04:45:51;30.17;;;3.53;;
2630;SDS011;1325;48.414;9.952;2022-08-03T04:48:20;28.97;;;2.80;;
2630;SDS011;1325;48.414;9.952;2022-08-03T04:50:47;30.70;;;4.00;;
2630;SDS011;1325;48.414;9.952;2022-08-03T04:53:15;29.87;;;4.07;;
2630;SDS011;1325;48.414;9.952;2022-08-03T04:55:44;32.10;;;4.77;;
2630;SDS011;1325;48.414;9.952;2022-08-03T04:58:12;30.30;;;4.27;;
2630;SDS011;1325;48.414;9.952;2022-08-03T05:00:39;31.30;;;4.50;;
2630;SDS011;1325;48.414;9.952;2022-08-03T05:03:07;30.70;;;4.73;;
2630;SDS011;1325;48.414;9.952;2022-08-03T05:05:35;31.20;;;4.80;;
2630;SDS011;1325;48.414;9.952;2022-08-03T05:08:02;31.73;;;4.70;;
2630;SDS011;1325;48.414;9.952;2022-08-03T05:10:30;30.70;;;4.70;;
2630;SDS011;1325;48.414;9.952;2022-08-03T05:12:59;32.33;;;5.20;;
2630;SDS011;1325;48.414;9.952;2022-08-03T05:15:27;30.20;;;4.50;;
2630;SDS011;1325;48.414;9.952;2022-08-03T05:17:54;31.30;;;4.13;;
2630;SDS011;1325;48.414;9.952;2022-08-03T05:20:21;31.57;;;4.87;;
2630;SDS011;1325;48.414;9.952;2022-08-03T05:22:48;36.57;;;6.13;;
2630;SDS011;1325;48.414;9.952;2022-08-03T05:25:16;32.03;;;4.50;;
2630;SDS011;1325;48.414;9.952;2022-08-03T05:27:43;32.97;;;4.53;;
2630;SDS011;1325;48.414;9.952;2022-08-03T05:30:11;31.80;;;4.77;;
2630;SDS011;1325;48.414;9.952;2022-08-03T05:32:39;33.70;;;4.47;;
2630;SDS011;1325;48.414;9.952;2022-08-03T05:35:06;31.40;;;3.70;;
2630;SDS011;1325;48.414;9.952;2022-08-03T05:37:34;30.90;;;4.13;;
2630;SDS011;1325;48.414;9.952;2022-08-03T05:40:01;31.90;;;3.90;;
2630;SDS011;1325;48.414;9.952;2022-08-03T05:42:29;34.00;;;3.73;;
2630;SDS011;1325;48.414;9.952;2022-08-03T05:44:56;33.47;;;4.33;;
2630;SDS011;1325;48.414;9.952;2022-08-03T05:47:25;32.97;;;4.17;;
2630;SDS011;1325;48.414;9.952;2022-08-03T05:49:52;33.20;;;4.50;;
2630;SDS011;1325;48.414;9.952;2022-08-03T05:52:19;34.53;;;3.67;;
2630;SDS011;1325;48.414;9.952;2022-08-03T05:54:46;32.10;;;3.80;;
2630;SDS011;1325;48.414;9.952;2022-08-03T05:57:13;31.70;;;3.40;;
2630;SDS011;1325;48.414;9.952;2022-08-03T05:59:43;36.93;;;4.10;;
2630;SDS011;1325;48.414;9.952;2022-08-03T06:02:20;30.97;;;3.20;;
2630;SDS011;1325;48.414;9.952;2022-08-03T06:04:49;31.07;;;3.50;;
2630;SDS011;1325;48.414;9.952;2022-08-03T06:07:16;33.30;;;3.60;;
2630;SDS011;1325;48.414;9.952;2022-08-03T06:09:43;31.33;;;3.53;;
2630;SDS011;1325;48.414;9.952;2022-08-03T06:12:11;31.80;;;3.50;;
2630;SDS011;1325;48.414;9.952;2022-08-03T06:14:38;32.83;;;3.23;;
2630;SDS011;1325;48.414;9.952;2022-08-03T06:17:05;33.10;;;3.40;;
2630;SDS011;1325;48.414;9.952;2022-08-03T06:19:33;32.50;;;3.07;;
2630;SDS011;1325;48.414;9.952;2022-08-03T06:22:01;33.23;;;4.20;;
2630;SDS011;1325;48.414;9.952;2022-08-03T06:24:29;36.57;;;3.30;;
2630;SDS011;1325;48.414;9.952;2022-08-03T06:26:57;31.70;;;3.27;;
2630;SDS011;1325;48.414;9.952;2022-08-03T06:29:24;32.30;;;3.43;;
2630;SDS011;1325;48.414;9.952;2022-08-03T06:31:51;31.07;;;3.00;;
2630;SDS011;1325;48.414;9.952;2022-08-03T06:34:19;31.80;;;3.17;;
2630;SDS011;1325;48.414;9.952;2022-08-03T06:36:46;33.10;;;3.13;;
2630;SDS011;1325;48.414;9.952;2022-08-03T06:39:16;31.07;;;3.00;;
2630;SDS011;1325;48.414;9.952;2022-08-03T06:41:43;31.70;;;3.30;;
2630;SDS011;1325;48.414;9.952;2022-08-03T06:44:11;31.00;;;2.80;;
2630;SDS011;1325;48.414;9.952;2022-08-03T06:46:38;33.57;;;3.27;;
2630;SDS011;1325;48.414;9.952;2022-08-03T06:49:07;31.77;;;3.00;;
2630;SDS011;1325;48.414;9.952;2022-08-03T06:51:34;31.67;;;3.20;;
2630;SDS011;1325;48.414;9.952;2022-08-03T06:54:01;34.93;;;3.00;;
2630;SDS011;1325;48.414;9.952;2022-08-03T06:56:30;31.63;;;2.90;;
2630;SDS011;1325;48.414;9.952;2022-08-03T06:58:58;30.13;;;2.67;;
2630;SDS011;1325;48.414;9.952;2022-08-03T07:01:25;32.10;;;2.87;;
2630;SDS011;1325;48.414;9.952;2022-08-03T07:03:53;32.57;;;2.93;;
2630;SDS011;1325;48.414;9.952;2022-08-03T07:06:20;30.60;;;2.80;;
2630;SDS011;1325;48.414;9.952;2022-08-03T07:08:47;33.63;;;3.30;;
2630;SDS011;1325;48.414;9.952;2022-08-03T07:11:15;32.37;;;3.10;;
2630;SDS011;1325;48.414;9.952;2022-08-03T07:13:44;30.80;;;3.20;;
2630;SDS011;1325;48.414;9.952;2022-08-03T07:16:11;32.20;;;3.13;;
2630;SDS011;1325;48.414;9.952;2022-08-03T07:18:38;32.50;;;3.30;;
2630;SDS011;1325;48.414;9.952;2022-08-03T07:21:06;33.77;;;4.10;;
2630;SDS011;1325;48.414;9.952;2022-08-03T07:23:35;31.37;;;2.70;;
2630;SDS011;1325;48.414;9.952;2022-08-03T07:26:02;31.87;;;2.80;;
2630;SDS011;1325;48.414;9.952;2022-08-03T07:28:29;31.20;;;2.67;;
2630;SDS011;1325;48.414;9.952;2022-08-03T07:30:58;30.73;;;2.60;;
2630;SDS011;1325;48.414;9.952;2022-08-03T07:33:25;30.97;;;2.93;;
2630;SDS011;1325;48.414;9.952;2022-08-03T07:35:53;30.70;;;3.27;;
2630;SDS011;1325;48.414;9.952;2022-08-03T07:38:20;31.87;;;2.73;;
2630;SDS011;1325;48.414;9.952;2022-08-03T07:40:47;30.27;;;2.40;;
2630;SDS011;1325;48.414;9.952;2022-08-03T07:43:15;31.53;;;2.57;;
2630;SDS011;1325;48.414;9.952;2022-08-03T07:45:42;29.27;;;1.90;;
2630;SDS011;1325;48.414;9.952;2022-08-03T07:48:11;29.37;;;2.10;;
2630;SDS011;1325;48.414;9.952;2022-08-03T07:50:39;29.10;;;1.70;;
2630;SDS011;1325;48.414;9.952;2022-08-03T07:53:06;29.03;;;1.73;;
2630;SDS011;1325;48.414;9.952;2022-08-03T07:55:34;29.80;;;1.60;;
2630;SDS011;1325;48.414;9.952;2022-08-03T07:58:02;28.90;;;1.60;;
2630;SDS011;1325;48.414;9.952;2022-08-03T08:00:32;29.47;;;1.87;;
2630;SDS011;1325;48.414;9.952;2022-08-03T08:02:59;28.87;;;1.60;;
2630;SDS011;1325;48.414;9.952;2022-08-03T08:05:28;29.10;;;1.90;;
2630;SDS011;1325;48.414;9.952;2022-08-03T08:07:56;29.17;;;1.90;;
2630;SDS011;1325;48.414;9.952;2022-08-03T08:10:23;28.93;;;1.43;;
2630;SDS011;1325;48.414;9.952;2022-08-03T08:12:51;30.00;;;1.43;;
2630;SDS011;1325;48.414;9.952;2022-08-03T08:15:18;29.53;;;2.17;;
2630;SDS011;1325;48.414;9.952;2022-08-03T08:17:46;29.27;;;1.70;;
2630;SDS011;1325;48.414;9.952;2022-08-03T08:20:16;30.00;;;1.60;;
2630;SDS011;1325;48.414;9.952;2022-08-03T08:22:50;28.70;;;1.60;;
2630;SDS011;1325;48.414;9.952;2022-08-03T08:25:18;29.20;;;1.70;;
2630;SDS011;1325;48.414;9.952;2022-08-03T08:27:45;29.90;;;2.00;;
2630;SDS011;1325;48.414;9.952;2022-08-03T08:30:16;29.30;;;1.90;;
2630;SDS011;1325;48.414;9.952;2022-08-03T08:32:46;29.00;;;1.60;;
2630;SDS011;1325;48.414;9.952;2022-08-03T08:35:14;29.10;;;1.70;;
2630;SDS011;1325;48.414;9.952;2022-08-03T08:37:42;28.60;;;1.47;;
2630;SDS011;1325;48.414;9.952;2022-08-03T08:40:13;29.23;;;1.97;;
2630;SDS011;1325;48.414;9.952;2022-08-03T08:42:41;29.10;;;1.57;;
2630;SDS011;1325;48.414;9.952;2022-08-03T08:45:09;29.93;;;1.90;;
2630;SDS011;1325;48.414;9.952;2022-08-03T08:47:40;30.83;;;1.63;;
2630;SDS011;1325;48.414;9.952;2022-08-03T08:50:16;30.00;;;2.00;;
2630;SDS011;1325;48.414;9.952;2022-08-03T08:52:46;29.53;;;1.97;;
2630;SDS011;1325;48.414;9.952;2022-08-03T08:55:19;28.80;;;1.70;;
2630;SDS011;1325;48.414;9.952;2022-08-03T08:57:48;29.40;;;1.90;;
2630;SDS011;1325;48.414;9.952;2022-08-03T09:00:19;29.73;;;1.80;;
2630;SDS011;1325;48.414;9.952;2022-08-03T09:02:46;29.50;;;1.67;;
2630;SDS011;1325;48.414;9.952;2022-08-03T09:05:14;30.27;;;1.70;;
2630;SDS011;1325;48.414;9.952;2022-08-03T09:07:44;28.80;;;1.70;;
2630;SDS011;1325;48.414;9.952;2022-08-03T09:10:13;30.63;;;1.80;;
2630;SDS011;1325;48.414;9.952;2022-08-03T09:12:45;28.93;;;1.57;;
2630;SDS011;1325;48.414;9.952;2022-08-03T09:15:17;30.00;;;1.80;;
2630;SDS011;1325;48.414;9.952;2022-08-03T09:17:50;30.20;;;1.87;;
2630;SDS011;1325;48.414;9.952;2022-08-03T09:20:21;29.80;;;1.60;;
2630;SDS011;1325;48.414;9.952;2022-08-03T09:22:51;30.00;;;1.73;;
2630;SDS011;1325;48.414;9.952;2022-08-03T09:25:25;29.10;;;1.83;;
2630;SDS011;1325;48.414;9.952;2022-08-03T09:27:56;31.70;;;2.13;;
2630;SDS011;1325;48.414;9.952;2022-08-03T09:30:33;29.27;;;1.80;;
2630;SDS011;1325;48.414;9.952;2022-08-03T09:33:01;29.33;;;1.80;;
2630;SDS011;1325;48.414;9.952;2022-08-03T09:35:30;28.90;;;1.70;;
2630;SDS011;1325;48.414;9.952;2022-08-03T09:38:11;29.23;;;1.73;;
2630;SDS011;1325;48.414;9.952;2022-08-03T09:40:40;28.97;;;1.60;;
2630;SDS011;1325;48.414;9.952;2022-08-03T09:43:10;29.17;;;1.77;;
2630;SDS011;1325;48.414;9.952;2022-08-03T09:45:38;28.90;;;1.80;;
2630;SDS011;1325;48.414;9.952;2022-08-03T09:48:18;29.80;;;2.10;;
2630;SDS011;1325;48.414;9.952;2022-08-03T09:50:48;29.93;;;2.13;;
2630;SDS011;1325;48.414;9.952;2022-08-03T09:53:16;29.17;;;2.17;;
2630;SDS011;1325;48.414;9.952;2022-08-03T09:55:51;30.60;;;1.90;;
2630;SDS011;1325;48.414;9.952;2022-08-03T09:58:21;29.30;;;2.10;;
2630;SDS011;1325;48.414;9.952;2022-08-03T10:00:52;29.10;;;2.07;;
2630;SDS011;1325;48.414;9.952;2022-08-03T10:03:22;30.60;;;2.00;;
2630;SDS011;1325;48.414;9.952;2022-08-03T10:05:51;30.10;;;2.17;;
2630;SDS011;1325;48.414;9.952;2022-08-03T10:08:19;29.33;;;1.80;;
2630;SDS011;1325;48.414;9.952;2022-08-03T10:10:49;29.87;;;1.60;;
2630;SDS011;1325;48.414;9.952;2022-08-03T10:13:21;29.87;;;2.00;;
2630;SDS011;1325;48.414;9.952;2022-08-03T10:15:49;30.57;;;1.90;;
2630;SDS011;1325;48.414;9.952;2022-08-03T10:18:16;28.97;;;1.97;;
2630;SDS011;1325;48.414;9.952;2022-08-03T10:20:45;29.53;;;2.20;;
2630;SDS011;1325;48.414;9.952;2022-08-03T10:23:15;29.60;;;2.17;;
2630;SDS011;1325;48.414;9.952;2022-08-03T10:25:45;29.97;;;2.20;;
2630;SDS011;1325;48.414;9.952;2022-08-03T10:28:15;29.50;;;2.00;;
2630;SDS011;1325;48.414;9.952;2022-08-03T10:30:48;29.80;;;2.40;;
2630;SDS011;1325;48.414;9.952;2022-08-03T10:33:18;32.10;;;2.27;;
2630;SDS011;1325;48.414;9.952;2022-08-03T10:35:51;29.70;;;2.53;;
2630;SDS011;1325;48.414;9.952;2022-08-03T10:38:24;29.40;;;1.70;;
2630;SDS011;1325;48.414;9.952;2022-08-03T10:40:58;29.37;;;2.17;;
2630;SDS011;1325;48.414;9.952;2022-08-03T10:43:27;29.90;;;2.07;;
2630;SDS011;1325;48.414;9.952;2022-08-03T10:46:14;30.60;;;2.10;;
2630;SDS011;1325;48.414;9.952;2022-08-03T10:48:45;29.20;;;1.97;;
2630;SDS011;1325;48.414;9.952;2022-08-03T10:51:14;30.03;;;1.70;;
2630;SDS011;1325;48.414;9.952;2022-08-03T10:53:42;30.90;;;2.03;;
2630;SDS011;1325;48.414;9.952;2022-08-03T11:05:31;30.10;;;1.77;;
2630;SDS011;1325;48.414;9.952;2022-08-03T11:08:22;29.40;;;1.57;;
2630;SDS011;1325;48.414;9.952;2022-08-03T11:10:53;30.30;;;1.90;;
2630;SDS011;1325;48.414;9.952;2022-08-03T11:13:24;29.87;;;1.83;;
2630;SDS011;1325;48.414;9.952;2022-08-03T11:15:55;29.00;;;1.50;;
2630;SDS011;1325;48.414;9.952;2022-08-03T11:18:29;29.60;;;1.67;;
2630;SDS011;1325;48.414;9.952;2022-08-03T11:21:02;28.90;;;1.60;;
2630;SDS011;1325;48.414;9.952;2022-08-03T11:23:40;28.70;;;1.40;;
2630;SDS011;1325;48.414;9.952;2022-08-03T11:26:10;28.77;;;1.60;;
2630;SDS011;1325;48.414;9.952;2022-08-03T11:28:43;31.20;;;2.23;;
2630;SDS011;1325;48.414;9.952;2022-08-03T11:34:23;29.17;;;1.63;;
2630;SDS011;1325;48.414;9.952;2022-08-03T11:39:52;29.17;;;1.80;;
2630;SDS011;1325;48.414;9.952;2022-08-03T11:45:14;28.60;;;1.30;;
2630;SDS011;1325;48.414;9.952;2022-08-03T11:47:44;29.50;;;1.60;;
2630;SDS011;1325;48.414;9.952;2022-08-03T11:50:13;28.70;;;1.30;;
2630;SDS011;1325;48.414;9.952;2022-08-03T11:52:41;29.27;;;1.60;;
2630;SDS011;1325;48.414;9.952;2022-08-03T11:55:12;28.80;;;1.70;;
2630;SDS011;1325;48.414;9.952;2022-08-03T11:57:44;29.00;;;1.70;;
2630;SDS011;1325;48.414;9.952;2022-08-03T12:00:22;29.87;;;1.60;;
2630;SDS011;1325;48.414;9.952;2022-08-03T12:02:53;29.17;;;1.77;;
2630;SDS011;1325;48.414;9.952;2022-08-03T12:08:28;29.90;;;1.40;;
2630;SDS011;1325;48.414;9.952;2022-08-03T12:10:58;29.40;;;1.50;;
2630;SDS011;1325;48.414;9.952;2022-08-03T12:13:34;29.40;;;1.83;;
2630;SDS011;1325;48.414;9.952;2022-08-03T12:16:09;29.20;;;1.83;;
2630;SDS011;1325;48.414;9.952;2022-08-03T12:18:43;29.47;;;1.67;;
2630;SDS011;1325;48.414;9.952;2022-08-03T12:21:12;29.00;;;1.60;;
2630;SDS011;1325;48.414;9.952;2022-08-03T12:23:40;30.30;;;1.83;;
2630;SDS011;1325;48.414;9.952;2022-08-03T12:26:08;30.40;;;1.83;;
2630;SDS011;1325;48.414;9.952;2022-08-03T12:28:36;29.20;;;1.70;;
2630;SDS011;1325;48.414;9.952;2022-08-03T12:31:04;29.47;;;1.70;;
2630;SDS011;1325;48.414;9.952;2022-08-03T12:36:28;28.97;;;1.60;;
2630;SDS011;1325;48.414;9.952;2022-08-03T12:38:58;28.77;;;1.87;;
2630;SDS011;1325;48.414;9.952;2022-08-03T12:41:29;29.50;;;1.93;;
2630;SDS011;1325;48.414;9.952;2022-08-03T12:43:59;28.70;;;1.80;;
2630;SDS011;1325;48.414;9.952;2022-08-03T12:46:28;29.03;;;1.83;;
2630;SDS011;1325;48.414;9.952;2022-08-03T12:49:02;30.53;;;1.57;;
2630;SDS011;1325;48.414;9.952;2022-08-03T12:51:34;29.10;;;1.70;;
2630;SDS011;1325;48.414;9.952;2022-08-03T12:54:03;29.80;;;1.77;;
2630;SDS011;1325;48.414;9.952;2022-08-03T12:56:31;29.27;;;1.57;;
2630;SDS011;1325;48.414;9.952;2022-08-03T12:58:59;29.00;;;1.90;;
2630;SDS011;1325;48.414;9.952;2022-08-03T13:01:35;28.67;;;1.63;;
2630;SDS011;1325;48.414;9.952;2022-08-03T13:04:02;29.47;;;1.67;;
2630;SDS011;1325;48.414;9.952;2022-08-03T13:06:30;29.63;;;1.70;;
2630;SDS011;1325;48.414;9.952;2022-08-03T13:09:03;28.90;;;1.53;;
2630;SDS011;1325;48.414;9.952;2022-08-03T13:11:32;29.17;;;1.70;;
2630;SDS011;1325;48.414;9.952;2022-08-03T13:13:59;29.27;;;1.90;;
2630;SDS011;1325;48.414;9.952;2022-08-03T13:16:27;29.87;;;1.70;;
2630;SDS011;1325;48.414;9.952;2022-08-03T13:18:54;29.63;;;2.10;;
2630;SDS011;1325;48.414;9.952;2022-08-03T13:21:21;30.80;;;1.97;;
2630;SDS011;1325;48.414;9.952;2022-08-03T13:23:49;30.70;;;1.80;;
2630;SDS011;1325;48.414;9.952;2022-08-03T13:26:17;28.97;;;1.47;;
2630;SDS011;1325;48.414;9.952;2022-08-03T13:28:44;30.90;;;1.70;;
2630;SDS011;1325;48.414;9.952;2022-08-03T13:31:12;30.13;;;1.87;;
2630;SDS011;1325;48.414;9.952;2022-08-03T13:33:39;30.33;;;1.70;;
2630;SDS011;1325;48.414;9.952;2022-08-03T13:36:07;30.30;;;1.80;;
2630;SDS011;1325;48.414;9.952;2022-08-03T13:38:34;28.80;;;1.60;;
2630;SDS011;1325;48.414;9.952;2022-08-03T13:41:01;29.20;;;1.50;;
2630;SDS011;1325;48.414;9.952;2022-08-03T13:43:30;29.20;;;1.90;;
2630;SDS011;1325;48.414;9.952;2022-08-03T13:45:57;28.90;;;1.50;;
2630;SDS011;1325;48.414;9.952;2022-08-03T13:48:25;29.70;;;1.93;;
2630;SDS011;1325;48.414;9.952;2022-08-03T13:50:52;29.40;;;1.67;;
2630;SDS011;1325;48.414;9.952;2022-08-03T13:53:19;30.40;;;2.00;;
2630;SDS011;1325;48.414;9.952;2022-08-03T13:55:47;29.40;;;1.90;;
2630;SDS011;1325;48.414;9.952;2022-08-03T13:58:14;28.97;;;1.80;;
2630;SDS011;1325;48.414;9.952;2022-08-03T14:00:43;30.30;;;2.40;;
2630;SDS011;1325;48.414;9.952;2022-08-03T14:03:10;29.67;;;2.03;;
2630;SDS011;1325;48.414;9.952;2022-08-03T14:05:38;30.00;;;2.13;;
2630;SDS011;1325;48.414;9.952;2022-08-03T14:08:05;30.33;;;1.90;;
2630;SDS011;1325;48.414;9.952;2022-08-03T14:10:33;29.60;;;1.70;;
2630;SDS011;1325;48.414;9.952;2022-08-03T14:13:04;30.33;;;1.70;;
2630;SDS011;1325;48.414;9.952;2022-08-03T14:15:31;29.20;;;1.80;;
2630;SDS011;1325;48.414;9.952;2022-08-03T14:18:00;30.03;;;1.90;;
2630;SDS011;1325;48.414;9.952;2022-08-03T14:20:28;28.90;;;1.70;;
2630;SDS011;1325;48.414;9.952;2022-08-03T14:22:55;29.57;;;1.80;;
2630;SDS011;1325;48.414;9.952;2022-08-03T14:25:23;29.20;;;1.80;;
2630;SDS011;1325;48.414;9.952;2022-08-03T14:27:50;29.17;;;1.70;;
2630;SDS011;1325;48.414;9.952;2022-08-03T14:30:18;29.37;;;1.57;;
2630;SDS011;1325;48.414;9.952;2022-08-03T14:32:45;28.83;;;1.60;;
2630;SDS011;1325;48.414;9.952;2022-08-03T14:35:13;29.40;;;2.00;;
2630;SDS011;1325;48.414;9.952;2022-08-03T14:37:41;30.60;;;1.77;;
2630;SDS011;1325;48.414;9.952;2022-08-03T14:40:08;28.90;;;1.70;;
2630;SDS011;1325;48.414;9.952;2022-08-03T14:42:36;28.90;;;1.80;;
2630;SDS011;1325;48.414;9.952;2022-08-03T14:45:03;29.57;;;1.83;;
2630;SDS011;1325;48.414;9.952;2022-08-03T14:47:32;28.87;;;1.60;;
2630;SDS011;1325;48.414;9.952;2022-08-03T14:49:59;29.17;;;1.90;;
2630;SDS011;1325;48.414;9.952;2022-08-03T14:52:30;28.77;;;1.60;;
2630;SDS011;1325;48.414;9.952;2022-08-03T14:54:57;29.70;;;1.57;;
2630;SDS011;1325;48.414;9.952;2022-08-03T14:57:25;29.03;;;1.60;;
2630;SDS011;1325;48.414;9.952;2022-08-03T14:59:53;29.77;;;1.90;;
2630;SDS011;1325;48.414;9.952;2022-08-03T15:02:20;29.30;;;1.80;;
2630;SDS011;1325;48.414;9.952;2022-08-03T15:04:47;30.07;;;1.73;;
2630;SDS011;1325;48.414;9.952;2022-08-03T15:07:15;29.23;;;1.93;;
2630;SDS011;1325;48.414;9.952;2022-08-03T15:09:43;29.63;;;1.60;;
2630;SDS011;1325;48.414;9.952;2022-08-03T15:12:10;29.77;;;1.90;;
2630;SDS011;1325;48.414;9.952;2022-08-03T15:14:38;29.00;;;1.50;;
2630;SDS011;1325;48.414;9.952;2022-08-03T15:17:05;29.87;;;1.70;;
2630;SDS011;1325;48.414;9.952;2022-08-03T15:19:32;29.10;;;1.80;;
2630;SDS011;1325;48.414;9.952;2022-08-03T15:22:00;28.80;;;1.60;;
2630;SDS011;1325;48.414;9.952;2022-08-03T15:24:27;29.67;;;2.10;;
2630;SDS011;1325;48.414;9.952;2022-08-03T15:26:56;30.40;;;1.80;;
2630;SDS011;1325;48.414;9.952;2022-08-03T15:29:23;29.40;;;1.70;;
2630;SDS011;1325;48.414;9.952;2022-08-03T15:31:51;29.20;;;1.63;;
2630;SDS011;1325;48.414;9.952;2022-08-03T15:34:18;29.97;;;1.70;;
2630;SDS011;1325;48.414;9.952;2022-08-03T15:36:46;29.60;;;1.77;;
2630;SDS011;1325;48.414;9.952;2022-08-03T15:39:13;28.70;;;1.57;;
2630;SDS011;1325;48.414;9.952;2022-08-03T15:41:40;31.07;;;1.90;;